createdAt,value
2023-03-21T00:02:05.679Z,23.10
2023-03-21T00:04:52.516Z,20.57
2023-03-21T00:07:39.015Z,22.60
2023-03-21T00:10:37.190Z,22.70
2023-03-21T00:13:23.944Z,22.73
2023-03-21T00:16:24.384Z,22.83
2023-03-21T00:19:10.916Z,26.83
2023-03-21T00:22:06.944Z,25.73
2023-03-21T00:24:53.343Z,27.13
2023-03-21T00:27:53.290Z,30.83
2023-03-21T00:30:41.664Z,35.97
2023-03-21T00:33:25.658Z,28.27
2023-03-21T00:36:12.449Z,24.57
2023-03-21T00:38:57.283Z,25.83
2023-03-21T00:41:43.569Z,34.30
2023-03-21T00:44:27.760Z,22.03
2023-03-21T00:47:13.509Z,18.17
2023-03-21T00:49:57.556Z,23.70
2023-03-21T00:52:41.975Z,24.93
2023-03-21T00:55:26.295Z,25.00
2023-03-21T00:58:12.941Z,25.23
2023-03-21T01:00:57.714Z,28.23
2023-03-21T01:03:50.955Z,27.30
2023-03-21T01:06:40.336Z,25.10
2023-03-21T01:09:26.140Z,22.80
2023-03-21T01:12:10.758Z,26.57
2023-03-21T01:14:56.693Z,26.00
2023-03-21T01:17:40.650Z,31.93
2023-03-21T01:20:24.885Z,28.23
2023-03-21T01:23:09.019Z,34.13
2023-03-21T01:25:55.101Z,21.37
2023-03-21T01:28:40.920Z,23.63
2023-03-21T01:31:26.415Z,22.33
2023-03-21T01:34:10.550Z,30.27
2023-03-21T01:36:54.586Z,22.17
2023-03-21T01:39:38.722Z,26.83
2023-03-21T01:42:22.719Z,20.23
2023-03-21T01:45:46.402Z,17.03
2023-03-21T01:48:34.216Z,27.90
2023-03-21T01:51:19.439Z,25.27
2023-03-21T01:54:17.554Z,23.50
2023-03-21T01:57:05.289Z,29.13
2023-03-21T01:59:51.578Z,21.53
2023-03-21T02:03:06.102Z,26.23
2023-03-21T02:06:10.372Z,14.53
2023-03-21T02:09:01.799Z,21.47
2023-03-21T02:11:47.681Z,23.27
2023-03-21T02:14:35.950Z,27.40
2023-03-21T02:17:35.335Z,22.33
2023-03-21T02:20:54.563Z,26.17
2023-03-21T02:24:26.628Z,24.63
2023-03-21T02:27:15.874Z,22.60
2023-03-21T02:30:52.167Z,19.43
2023-03-21T02:34:22.916Z,20.83
2023-03-21T02:37:18.117Z,32.57
2023-03-21T02:40:12.047Z,23.10
2023-03-21T02:43:04.302Z,28.77
2023-03-21T02:45:56.033Z,19.37
2023-03-21T02:48:50.821Z,29.30
2023-03-21T02:51:38.032Z,23.53
2023-03-21T02:54:38.671Z,26.23
2023-03-21T02:57:40.113Z,29.73
2023-03-21T03:00:29.834Z,22.03
2023-03-21T03:03:24.972Z,21.10
2023-03-21T03:06:20.888Z,27.23
2023-03-21T03:09:30.598Z,21.97
2023-03-21T03:12:23.827Z,25.50
2023-03-21T03:15:17.919Z,21.03
2023-03-21T03:18:12.726Z,17.50
2023-03-21T03:21:05.622Z,24.23
2023-03-21T03:23:54.296Z,21.43
2023-03-21T03:26:42.639Z,22.83
2023-03-21T03:29:29.748Z,32.50
2023-03-21T03:32:18.350Z,23.77
2023-03-21T03:35:04.549Z,21.93
2023-03-21T03:37:52.271Z,19.97
2023-03-21T03:40:42.183Z,23.27
2023-03-21T03:43:44.942Z,28.60
2023-03-21T03:46:32.019Z,25.07
2023-03-21T03:49:20.883Z,26.23
2023-03-21T03:52:10.948Z,21.97
2023-03-21T03:55:00.072Z,23.93
2023-03-21T03:57:50.849Z,25.23
2023-03-21T04:00:36.954Z,23.17
2023-03-21T04:03:22.143Z,27.93
2023-03-21T04:06:07.529Z,23.83
2023-03-21T04:08:51.618Z,25.90
2023-03-21T04:11:35.965Z,21.93
2023-03-21T04:14:19.968Z,23.00
2023-03-21T04:17:06.097Z,33.83
2023-03-21T04:19:55.552Z,28.53
2023-03-21T04:22:42.258Z,28.50
2023-03-21T04:25:33.769Z,22.40
2023-03-21T04:28:22.310Z,26.43
2023-03-21T04:31:25.611Z,21.17
2023-03-21T04:34:24.172Z,25.37
2023-03-21T04:37:13.682Z,22.77
2023-03-21T04:39:58.587Z,21.33
2023-03-21T04:42:42.821Z,20.00
2023-03-21T04:45:26.957Z,20.07
2023-03-21T04:48:11.346Z,27.90
2023-03-21T04:50:56.888Z,26.53
2023-03-21T04:53:44.864Z,27.57
2023-03-21T04:56:32.634Z,23.80
2023-03-21T04:59:18.122Z,23.03
2023-03-21T05:02:02.380Z,18.83
2023-03-21T05:04:48.019Z,25.20
2023-03-21T05:07:33.496Z,23.43
2023-03-21T05:10:18.024Z,21.13
2023-03-21T05:13:02.462Z,21.47
2023-03-21T05:15:46.549Z,23.43
2023-03-21T05:18:35.042Z,20.50
2023-03-21T05:21:29.620Z,25.97
2023-03-21T05:24:19.444Z,28.60
2023-03-21T05:27:03.772Z,30.33
2023-03-21T05:29:55.552Z,28.03
2023-03-21T05:32:39.870Z,28.33
2023-03-21T05:35:27.670Z,26.57
2023-03-21T05:38:14.339Z,32.30
2023-03-21T05:41:08.918Z,28.87
2023-03-21T05:43:53.181Z,28.57
2023-03-21T05:46:37.253Z,24.07
2023-03-21T05:49:22.885Z,29.87
2023-03-21T05:52:11.358Z,31.80
2023-03-21T05:54:55.405Z,27.83
2023-03-21T05:57:42.640Z,39.20
2023-03-21T06:00:41.044Z,32.43
2023-03-21T06:03:36.362Z,30.33
2023-03-21T06:06:33.440Z,28.80
2023-03-21T06:09:18.318Z,23.87
2023-03-21T06:12:09.916Z,29.73
2023-03-21T06:15:05.565Z,34.67
2023-03-21T06:17:56.823Z,30.57
2023-03-21T06:20:41.020Z,34.20
2023-03-21T06:23:28.356Z,38.00
2023-03-21T06:26:12.747Z,30.87
2023-03-21T06:28:56.994Z,30.37
2023-03-21T06:31:42.692Z,38.13
2023-03-21T06:34:26.912Z,31.57
2023-03-21T06:37:11.225Z,43.43
2023-03-21T06:39:55.707Z,34.03
2023-03-21T06:42:40.717Z,34.70
2023-03-21T06:45:27.968Z,36.83
2023-03-21T06:48:13.831Z,29.63
2023-03-21T06:51:08.961Z,44.83
2023-03-21T06:53:57.577Z,34.47
2023-03-21T06:57:02.815Z,36.77
2023-03-21T06:59:50.580Z,36.83
2023-03-21T07:02:40.178Z,30.57
2023-03-21T07:05:30.512Z,45.17
2023-03-21T07:08:14.386Z,36.97
2023-03-21T07:10:58.984Z,31.57
2023-03-21T07:13:43.513Z,43.27
2023-03-21T07:16:27.616Z,44.00
2023-03-21T07:19:11.587Z,35.80
2023-03-21T07:21:57.087Z,41.87
2023-03-21T07:24:41.134Z,42.83
2023-03-21T07:27:25.451Z,41.33
2023-03-21T07:30:11.334Z,41.77
2023-03-21T07:32:55.489Z,38.90
2023-03-21T07:35:40.270Z,45.10
2023-03-21T07:38:26.702Z,48.23
2023-03-21T07:41:11.552Z,53.10
2023-03-21T07:43:55.736Z,45.87
2023-03-21T07:46:42.165Z,37.60
2023-03-21T07:49:26.837Z,38.53
2023-03-21T07:52:10.952Z,44.37
2023-03-21T07:54:56.492Z,41.97
2023-03-21T07:57:40.775Z,36.00
2023-03-21T08:00:25.492Z,32.57
2023-03-21T08:03:09.819Z,36.17
2023-03-21T08:05:53.927Z,37.47
2023-03-21T08:08:37.950Z,33.83
2023-03-21T08:11:23.802Z,32.97
2023-03-21T08:14:07.817Z,30.53
2023-03-21T08:16:51.781Z,33.50
2023-03-21T08:19:35.828Z,30.20
2023-03-21T08:22:19.784Z,34.77
2023-03-21T08:25:05.389Z,32.50
2023-03-21T08:27:52.660Z,37.90
2023-03-21T08:30:37.322Z,35.10
2023-03-21T08:33:21.821Z,30.60
2023-03-21T08:36:08.066Z,31.93
2023-03-21T08:38:56.998Z,32.63
2023-03-21T08:41:41.057Z,34.10
2023-03-21T08:44:27.052Z,35.57
2023-03-21T08:47:10.968Z,45.27
2023-03-21T08:49:56.026Z,32.07
2023-03-21T08:52:41.220Z,34.90
2023-03-21T08:55:25.421Z,66.33
2023-03-21T08:58:10.279Z,44.57
2023-03-21T09:00:55.867Z,47.13
2023-03-21T09:03:40.455Z,40.43
2023-03-21T09:06:24.908Z,49.23
2023-03-21T09:09:09.591Z,46.17
2023-03-21T09:11:53.640Z,41.77
2023-03-21T09:14:37.993Z,40.43
2023-03-21T09:17:23.442Z,45.93
2023-03-21T09:20:11.485Z,45.63
2023-03-21T09:22:55.433Z,39.73
2023-03-21T09:25:40.310Z,49.93
2023-03-21T09:28:25.215Z,38.43
2023-03-21T09:31:11.452Z,33.83
2023-03-21T09:33:58.166Z,39.00
2023-03-21T09:36:42.304Z,35.50
2023-03-21T09:39:27.469Z,37.43
2023-03-21T09:42:31.141Z,47.67
2023-03-21T09:45:20.328Z,41.40
2023-03-21T09:48:07.820Z,40.17
2023-03-21T09:50:53.974Z,46.73
2023-03-21T09:53:41.282Z,45.63
2023-03-21T09:56:26.231Z,39.43
2023-03-21T09:59:19.673Z,39.33
2023-03-21T10:02:04.532Z,35.67
2023-03-21T10:04:49.557Z,33.73
2023-03-21T10:07:40.600Z,34.70
2023-03-21T10:10:28.615Z,37.27
2023-03-21T10:13:17.353Z,37.13
2023-03-21T10:16:11.653Z,37.20
2023-03-21T10:18:57.258Z,43.03
2023-03-21T10:21:59.711Z,40.43
2023-03-21T10:24:46.076Z,34.90
2023-03-21T10:27:29.943Z,42.17
2023-03-21T10:30:26.543Z,39.33
2023-03-21T11:33:59.969Z,47.30
2023-03-21T11:36:51.556Z,53.80
2023-03-21T11:39:41.317Z,45.10
2023-03-21T11:42:30.487Z,42.70
2023-03-21T11:45:16.486Z,51.27
2023-03-21T11:48:02.407Z,40.83
2023-03-21T11:50:50.076Z,33.20
2023-03-21T11:53:41.866Z,45.43
2023-03-21T11:56:29.564Z,41.47
2023-03-21T11:59:30.223Z,41.80
2023-03-21T12:02:38.099Z,34.10
2023-03-21T12:05:29.922Z,38.63
2023-03-21T12:08:25.148Z,38.03
2023-03-21T12:11:18.758Z,47.57
2023-03-21T12:14:12.169Z,40.80
2023-03-21T12:17:07.363Z,51.60
2023-03-21T12:20:17.983Z,34.57
2023-03-21T12:23:17.330Z,39.77
2023-03-21T12:26:11.800Z,39.40
2023-03-21T12:29:21.028Z,46.07
2023-03-21T12:32:30.717Z,43.20
2023-03-21T12:35:32.389Z,40.93
2023-03-21T12:38:19.419Z,41.80
2023-03-21T12:41:20.962Z,45.07
2023-03-21T12:44:10.114Z,47.43
2023-03-21T12:46:59.628Z,49.53
2023-03-21T12:49:49.957Z,57.23
2023-03-21T12:52:40.004Z,53.07
2023-03-21T12:55:26.655Z,38.77
2023-03-21T12:58:18.714Z,42.43
2023-03-21T13:01:06.839Z,41.03
2023-03-21T13:03:58.655Z,38.07
2023-03-21T13:06:44.481Z,35.50
2023-03-21T13:09:37.768Z,35.80
2023-03-21T13:12:43.232Z,37.40
2023-03-21T13:15:48.387Z,33.90
2023-03-21T13:18:50.267Z,33.37
2023-03-21T13:21:50.645Z,29.27
2023-03-21T13:24:40.072Z,31.23
2023-03-21T13:27:30.246Z,35.03
2023-03-21T13:30:21.986Z,43.00
2023-03-21T13:33:08.497Z,37.63
2023-03-21T13:36:05.503Z,37.80
2023-03-21T13:38:52.922Z,37.57
2023-03-21T13:41:39.029Z,38.00
2023-03-21T13:44:27.044Z,44.70
2023-03-21T13:47:30.884Z,43.47
2023-03-21T13:50:36.590Z,41.70
2023-03-21T13:53:24.839Z,38.93
2023-03-21T13:56:25.431Z,34.87
2023-03-21T13:59:12.348Z,36.03
2023-03-21T14:02:02.050Z,41.53
2023-03-21T14:05:04.216Z,45.37
2023-03-21T14:07:54.771Z,35.90
2023-03-21T14:10:44.855Z,38.10
2023-03-21T14:13:29.788Z,35.87
2023-03-21T14:16:18.015Z,41.10
2023-03-21T14:19:05.191Z,45.90
2023-03-21T14:21:53.589Z,48.43
2023-03-21T14:24:37.560Z,41.63
2023-03-21T14:27:23.861Z,41.30
2023-03-21T14:30:13.077Z,45.53
2023-03-21T14:32:59.905Z,41.97
2023-03-21T14:35:44.096Z,43.70
2023-03-21T14:38:33.483Z,49.07
2023-03-21T14:41:24.459Z,41.43
2023-03-21T14:44:19.186Z,41.80
2023-03-21T14:47:06.658Z,44.03
2023-03-21T14:49:51.521Z,50.40
2023-03-21T14:52:37.206Z,48.30
2023-03-21T14:55:21.901Z,44.37
2023-03-21T14:58:06.743Z,50.00
2023-03-21T15:00:55.822Z,36.50
2023-03-21T15:03:39.769Z,48.07
2023-03-21T15:06:23.786Z,43.37
2023-03-21T15:09:10.127Z,41.80
2023-03-21T15:11:57.418Z,51.07
2023-03-21T15:14:41.805Z,60.67
2023-03-21T15:17:28.407Z,59.17
2023-03-21T15:20:16.578Z,49.40
2023-03-21T15:23:04.826Z,41.97
2023-03-21T15:25:48.712Z,64.93
2023-03-21T15:28:34.631Z,52.00
2023-03-21T15:31:21.013Z,57.10
2023-03-21T15:34:07.127Z,82.33
2023-03-21T15:36:56.282Z,58.97
2023-03-21T15:39:40.272Z,55.93
2023-03-21T15:42:33.365Z,66.87
2023-03-21T15:45:23.626Z,60.23
2023-03-21T15:48:10.545Z,54.57
2023-03-21T15:51:02.845Z,100.60
2023-03-21T15:53:46.994Z,56.33
2023-03-21T15:56:37.370Z,51.03
2023-03-21T15:59:22.544Z,60.00
2023-03-21T16:02:07.430Z,61.27
2023-03-21T16:05:02.639Z,59.30
2023-03-21T16:07:48.858Z,90.50
2023-03-21T16:10:37.010Z,77.20
2023-03-21T16:13:21.148Z,66.73
2023-03-21T16:16:05.124Z,68.27
2023-03-21T16:18:49.750Z,76.50
2023-03-21T16:21:34.301Z,62.73
2023-03-21T16:24:19.653Z,73.83
2023-03-21T16:27:03.589Z,84.90
2023-03-21T16:29:47.749Z,79.27
2023-03-21T16:32:31.722Z,68.60
2023-03-21T16:35:16.340Z,84.77
2023-03-21T16:38:00.460Z,90.83
2023-03-21T16:40:46.017Z,86.60
2023-03-21T16:43:29.938Z,110.43
2023-03-21T16:46:15.382Z,99.20
2023-03-21T16:48:59.933Z,76.73
2023-03-21T16:51:44.047Z,107.70
2023-03-21T16:54:28.238Z,68.87
2023-03-21T16:57:27.731Z,66.97
2023-03-21T17:00:16.980Z,69.30
2023-03-21T17:03:03.344Z,66.30
2023-03-21T17:05:47.658Z,67.87
2023-03-21T17:08:31.696Z,66.77
2023-03-21T17:11:20.260Z,74.80
2023-03-21T17:14:05.838Z,75.23
2023-03-21T17:16:50.091Z,80.47
2023-03-21T17:19:34.143Z,75.10
2023-03-21T17:22:18.079Z,78.43
2023-03-21T17:25:03.351Z,84.63
2023-03-21T17:27:48.390Z,86.33
2023-03-21T17:30:35.913Z,79.27
2023-03-21T17:33:20.119Z,90.70
2023-03-21T17:36:05.817Z,76.33
2023-03-21T17:38:50.007Z,79.30
2023-03-21T17:41:34.737Z,73.23
2023-03-21T17:44:18.999Z,67.67
2023-03-21T17:47:04.562Z,65.60
2023-03-21T17:49:48.457Z,57.80
2023-03-21T17:52:32.525Z,63.17
2023-03-21T17:55:18.004Z,54.50
2023-03-21T17:58:02.349Z,72.13
2023-03-21T18:00:47.052Z,95.47
2023-03-21T18:03:32.923Z,62.33
2023-03-21T18:06:18.486Z,59.13
2023-03-21T18:09:07.939Z,55.87
2023-03-21T18:11:52.007Z,55.30
2023-03-21T18:14:40.436Z,44.53
2023-03-21T18:17:24.924Z,41.23
2023-03-21T18:20:14.977Z,47.30
2023-03-21T18:22:58.906Z,46.93
2023-03-21T18:25:43.070Z,45.40
2023-03-21T18:28:27.248Z,47.13
2023-03-21T18:31:19.758Z,43.40
2023-03-21T18:34:04.168Z,49.17
2023-03-21T18:36:49.778Z,48.53
2023-03-21T18:39:33.873Z,47.23
2023-03-21T18:42:20.447Z,44.90
2023-03-21T18:45:10.106Z,45.90
2023-03-21T18:47:54.121Z,46.00
2023-03-21T18:50:38.471Z,42.93
2023-03-21T18:53:24.132Z,41.53
2023-03-21T18:56:10.564Z,43.40
2023-03-21T18:58:54.793Z,39.70
2023-03-21T19:01:39.280Z,36.33
2023-03-21T19:04:29.891Z,36.80
2023-03-21T19:07:14.702Z,35.20
2023-03-21T19:10:16.434Z,37.57
2023-03-21T19:13:02.375Z,35.90
2023-03-21T19:15:49.393Z,35.57
2023-03-21T19:18:52.161Z,32.73
2023-03-21T19:21:37.895Z,26.93
2023-03-21T19:24:28.348Z,38.40
2023-03-21T19:27:14.846Z,33.63
2023-03-21T19:30:13.581Z,29.40
2023-03-21T19:32:58.250Z,28.00
2023-03-21T19:35:43.123Z,29.43
2023-03-21T19:38:27.738Z,36.73
2023-03-21T19:41:11.844Z,37.23
2023-03-21T19:43:57.761Z,28.33
2023-03-21T19:46:42.124Z,28.93
2023-03-21T19:49:37.473Z,26.90
2023-03-21T19:52:32.123Z,27.33
2023-03-21T19:55:16.252Z,27.10
2023-03-21T19:58:00.527Z,31.90
2023-03-21T20:00:46.399Z,30.27
2023-03-21T20:03:30.892Z,25.07
2023-03-21T20:06:15.386Z,21.33
2023-03-21T20:12:05.789Z,30.60
2023-03-21T20:14:56.007Z,21.70
2023-03-21T20:17:50.726Z,24.57
2023-03-21T20:20:34.989Z,24.23
2023-03-21T20:23:19.681Z,31.97
2023-03-21T20:26:09.433Z,24.93
2023-03-21T20:29:27.878Z,30.27
2023-03-21T20:32:01.181Z,28.97
2023-03-21T20:34:46.783Z,26.43
2023-03-21T20:37:30.975Z,25.63
2023-03-21T20:40:17.555Z,22.00
2023-03-21T20:43:28.451Z,26.13
2023-03-21T20:46:10.247Z,24.73
2023-03-21T20:48:54.873Z,28.80
2023-03-21T20:54:45.792Z,31.60
2023-03-21T20:57:30.310Z,22.07
2023-03-21T21:00:17.287Z,25.47
2023-03-21T21:03:01.372Z,26.67
2023-03-21T21:05:46.744Z,19.83
2023-03-21T21:08:32.333Z,25.37
2023-03-21T21:12:04.727Z,25.10
2023-03-21T21:14:22.581Z,27.03
2023-03-21T21:17:24.588Z,22.33
2023-03-21T21:20:16.940Z,26.90
2023-03-21T21:23:01.164Z,27.57
2023-03-21T21:25:46.776Z,22.73
2023-03-21T21:28:32.329Z,28.13
2023-03-21T21:31:18.497Z,28.17
2023-03-21T21:34:03.351Z,24.53
2023-03-21T21:36:47.546Z,32.07
2023-03-21T21:39:36.571Z,27.83
2023-03-21T21:42:21.885Z,26.97
2023-03-21T21:45:07.194Z,29.83
2023-03-21T21:47:51.226Z,28.53
2023-03-21T21:50:36.314Z,27.80
2023-03-21T21:53:20.422Z,30.37
2023-03-21T21:56:04.491Z,31.97
2023-03-21T21:58:52.343Z,29.90
2023-03-21T22:01:38.720Z,28.47
2023-03-21T22:04:28.650Z,26.37
2023-03-21T22:07:14.892Z,28.50
2023-03-21T22:09:58.917Z,30.70
2023-03-21T22:12:43.043Z,31.90
2023-03-21T22:15:28.949Z,29.07
2023-03-21T22:18:12.968Z,26.83
2023-03-21T22:20:57.172Z,29.90
2023-03-21T22:23:43.123Z,29.63
2023-03-21T22:26:27.378Z,24.23
2023-03-21T22:29:11.377Z,26.43
2023-03-21T22:31:57.431Z,24.00
2023-03-21T22:34:41.720Z,30.00
2023-03-21T22:37:26.149Z,26.33
2023-03-21T22:40:13.245Z,26.63
2023-03-21T22:42:57.329Z,26.10
2023-03-21T22:45:42.463Z,28.37
2023-03-21T22:48:30.380Z,23.87
2023-03-21T22:51:14.408Z,24.30
2023-03-21T22:53:58.551Z,26.93
2023-03-21T22:56:42.517Z,25.77
2023-03-21T22:59:26.721Z,22.43
2023-03-21T23:02:11.033Z,24.20
2023-03-21T23:04:56.577Z,26.43
2023-03-21T23:07:40.978Z,27.13
2023-03-21T23:10:25.184Z,26.03
2023-03-21T23:13:09.384Z,26.13
2023-03-21T23:15:53.736Z,27.10
2023-03-21T23:18:38.773Z,27.17
2023-03-21T23:21:25.608Z,27.87
2023-03-21T23:24:10.807Z,29.17
2023-03-21T23:26:54.730Z,33.23
2023-03-21T23:29:38.662Z,23.53
2023-03-21T23:32:22.691Z,24.63
2023-03-21T23:35:07.848Z,21.67
2023-03-21T23:37:53.416Z,20.17
2023-03-21T23:40:40.705Z,27.77
2023-03-21T23:43:25.140Z,25.87
2023-03-21T23:46:09.751Z,20.57
2023-03-21T23:48:53.777Z,22.80
2023-03-21T23:51:39.000Z,21.73
2023-03-21T23:54:24.482Z,22.23
2023-03-21T23:57:08.425Z,18.40
2023-03-21T23:59:55.543Z,18.27
